createdAt,value
2016-10-24T00:00:53.220Z,933.82
2016-10-24T00:02:06.837Z,933.81
2016-10-24T00:03:20.384Z,933.73
2016-10-24T00:04:33.308Z,933.8
2016-10-24T00:05:46.895Z,933.8
2016-10-24T00:07:00.491Z,933.84
2016-10-24T00:08:14.026Z,933.83
2016-10-24T00:09:27.579Z,933.84
2016-10-24T00:10:41.159Z,933.82
2016-10-24T00:11:54.172Z,933.74
2016-10-24T00:13:07.704Z,933.77
2016-10-24T00:14:21.204Z,933.75
2016-10-24T00:15:34.761Z,933.81
2016-10-24T00:16:47.251Z,933.77
2016-10-24T00:18:00.221Z,933.81
2016-10-24T00:19:13.772Z,933.81
2016-10-24T00:20:26.742Z,933.8
2016-10-24T00:21:39.753Z,933.8
2016-10-24T00:22:52.829Z,933.78
2016-10-24T00:24:06.420Z,933.77
2016-10-24T00:25:19.962Z,933.79
2016-10-24T00:26:33.523Z,933.72
2016-10-24T00:27:47.084Z,933.75
2016-10-24T00:29:00.695Z,933.76
2016-10-24T00:30:13.994Z,933.75
2016-10-24T00:31:27.012Z,933.77
2016-10-24T00:32:40.613Z,933.77
2016-10-24T00:33:53.641Z,933.79
2016-10-24T00:35:06.913Z,933.82
2016-10-24T00:36:20.422Z,933.86
2016-10-24T00:37:33.998Z,933.86
2016-10-24T00:38:47.005Z,933.89
2016-10-24T00:40:00.607Z,933.88
2016-10-24T00:41:13.106Z,933.9
2016-10-24T00:42:26.718Z,933.91
2016-10-24T00:43:40.319Z,933.89
2016-10-24T00:44:53.299Z,933.89
2016-10-24T00:46:05.844Z,933.88
2016-10-24T00:47:19.303Z,933.88
2016-10-24T00:48:32.354Z,933.86
2016-10-24T00:49:45.947Z,933.89
2016-10-24T00:50:59.507Z,933.84
2016-10-24T00:52:13.108Z,933.84
2016-10-24T00:53:26.645Z,933.87
2016-10-24T00:54:39.698Z,933.83
2016-10-24T00:55:53.217Z,933.82
2016-10-24T00:57:06.288Z,933.88
2016-10-24T00:58:19.855Z,933.9
2016-10-24T00:59:32.938Z,933.95
2016-10-24T01:00:46.489Z,933.92
2016-10-24T01:02:00.114Z,933.93
2016-10-24T01:03:13.592Z,933.91
2016-10-24T01:04:27.146Z,933.9
2016-10-24T01:05:40.713Z,933.92
2016-10-24T01:06:53.716Z,933.92
2016-10-24T01:08:07.239Z,933.92
2016-10-24T01:09:20.957Z,933.84
2016-10-24T01:10:34.506Z,933.86
2016-10-24T01:11:48.125Z,933.88
2016-10-24T01:13:01.694Z,933.81
2016-10-24T01:14:15.314Z,933.79
2016-10-24T01:15:28.829Z,933.78
2016-10-24T01:16:41.841Z,933.7
2016-10-24T01:17:55.493Z,933.74
2016-10-24T01:19:08.495Z,933.71
2016-10-24T01:20:22.410Z,933.73
2016-10-24T01:21:35.988Z,933.72
2016-10-24T01:22:49.197Z,933.72
2016-10-24T01:24:01.677Z,933.74
2016-10-24T01:25:15.253Z,933.71
2016-10-24T01:26:28.215Z,933.71
2016-10-24T01:27:41.315Z,933.68
2016-10-24T01:28:54.351Z,933.67
2016-10-24T01:30:07.353Z,933.65
2016-10-24T01:31:20.446Z,933.71
2016-10-24T01:32:33.958Z,933.67
2016-10-24T01:33:47.470Z,933.69
2016-10-24T01:35:01.032Z,933.71
2016-10-24T01:36:14.597Z,933.7
2016-10-24T01:37:28.641Z,933.72
2016-10-24T01:38:42.184Z,933.74
2016-10-24T01:39:55.765Z,933.72
2016-10-24T01:41:08.794Z,933.69
2016-10-24T01:42:22.350Z,933.68
2016-10-24T01:43:35.894Z,933.69
2016-10-24T01:44:48.894Z,933.69
2016-10-24T01:46:02.445Z,933.67
2016-10-24T01:47:16.055Z,933.65
2016-10-24T01:48:29.059Z,933.63
2016-10-24T01:49:42.575Z,933.61
2016-10-24T01:50:55.614Z,933.61
2016-10-24T01:52:09.182Z,933.62
2016-10-24T01:53:22.202Z,933.62
2016-10-24T01:54:35.834Z,933.62
2016-10-24T01:55:49.402Z,933.62
2016-10-24T01:57:02.389Z,933.62
2016-10-24T01:58:16.002Z,933.66
2016-10-24T01:59:28.558Z,933.62
2016-10-24T02:00:42.027Z,933.61
2016-10-24T02:01:55.547Z,933.63
2016-10-24T02:03:09.088Z,933.53
2016-10-24T02:04:21.581Z,933.52
2016-10-24T02:05:33.593Z,933.48
2016-10-24T02:06:46.659Z,933.41
2016-10-24T02:08:00.025Z,933.39
2016-10-24T02:09:13.070Z,933.38
2016-10-24T02:10:26.128Z,933.35
2016-10-24T02:11:39.707Z,933.34
2016-10-24T02:12:53.260Z,933.31
2016-10-24T02:14:06.901Z,933.27
2016-10-24T02:15:20.450Z,933.26
2016-10-24T02:16:33.982Z,933.21
2016-10-24T02:17:47.495Z,933.2
2016-10-24T02:19:01.036Z,933.15
2016-10-24T02:20:14.571Z,933.16
2016-10-24T02:21:27.873Z,933.12
2016-10-24T02:22:41.446Z,933.09
2016-10-24T02:23:54.432Z,933.09
2016-10-24T02:25:07.895Z,933.05
2016-10-24T02:26:21.409Z,933.11
2016-10-24T02:27:34.964Z,933.08
2016-10-24T02:28:48.009Z,933.06
2016-10-24T02:30:01.024Z,933.01
2016-10-24T02:31:14.588Z,933.01
2016-10-24T02:32:28.544Z,933
2016-10-24T02:33:41.592Z,932.99
2016-10-24T02:34:54.923Z,932.99
2016-10-24T02:36:08.506Z,933.03
2016-10-24T02:37:22.261Z,933.01
2016-10-24T02:38:35.764Z,933.03
2016-10-24T02:39:48.793Z,933.01
2016-10-24T02:41:01.735Z,932.98
2016-10-24T02:42:15.333Z,932.99
2016-10-24T02:43:28.779Z,932.94
2016-10-24T02:44:42.316Z,932.91
2016-10-24T02:45:55.906Z,932.87
2016-10-24T02:47:09.498Z,932.89
2016-10-24T02:48:23.018Z,932.81
2016-10-24T02:49:36.148Z,932.84
2016-10-24T02:50:48.648Z,932.85
2016-10-24T02:52:02.237Z,932.89
2016-10-24T02:53:15.786Z,932.88
2016-10-24T02:54:29.302Z,932.91
2016-10-24T02:55:42.829Z,932.91
2016-10-24T02:56:56.421Z,933.01
2016-10-24T02:58:09.418Z,933.04
2016-10-24T02:59:22.963Z,933.03
2016-10-24T03:00:36.487Z,933.04
2016-10-24T03:01:49.532Z,933.03
2016-10-24T03:03:02.586Z,932.99
2016-10-24T03:04:16.165Z,932.98
2016-10-24T03:05:29.705Z,932.95
2016-10-24T03:06:43.277Z,932.95
2016-10-24T03:07:56.798Z,932.97
2016-10-24T03:09:09.893Z,932.98
2016-10-24T03:10:23.435Z,932.94
2016-10-24T03:11:37.254Z,932.95
2016-10-24T03:12:49.769Z,932.93
2016-10-24T03:14:03.289Z,932.93
2016-10-24T03:15:16.364Z,932.9
2016-10-24T03:16:29.872Z,932.87
2016-10-24T03:17:42.837Z,932.87
2016-10-24T03:18:56.408Z,932.85
2016-10-24T03:20:09.953Z,932.86
2016-10-24T03:21:23.541Z,932.82
2016-10-24T03:22:37.056Z,932.83
2016-10-24T03:23:50.629Z,932.8
2016-10-24T03:25:04.172Z,932.8
2016-10-24T03:26:18.167Z,932.76
2016-10-24T03:27:31.727Z,932.76
2016-10-24T03:28:44.728Z,932.73
2016-10-24T03:29:58.099Z,932.73
2016-10-24T03:31:11.640Z,932.76
2016-10-24T03:32:24.949Z,932.77
2016-10-24T03:33:38.608Z,932.74
2016-10-24T03:34:51.634Z,932.77
2016-10-24T03:36:05.177Z,932.74
2016-10-24T03:37:18.262Z,932.64
2016-10-24T03:38:31.776Z,932.64
2016-10-24T03:39:45.307Z,932.59
2016-10-24T03:40:58.327Z,932.55
2016-10-24T03:42:11.364Z,932.53
2016-10-24T03:43:25.003Z,932.52
2016-10-24T03:44:38.617Z,932.52
2016-10-24T03:45:52.233Z,932.51
2016-10-24T03:47:05.804Z,932.5
2016-10-24T03:48:19.366Z,932.48
2016-10-24T03:49:32.338Z,932.47
2016-10-24T03:50:45.925Z,932.46
2016-10-24T03:51:59.430Z,932.47
2016-10-24T03:53:12.985Z,932.47
2016-10-24T03:54:26.455Z,932.44
2016-10-24T03:55:39.702Z,932.43
2016-10-24T03:56:53.195Z,932.42
2016-10-24T03:58:06.751Z,932.34
2016-10-24T03:59:19.786Z,932.34
2016-10-24T04:00:33.336Z,932.28
2016-10-24T04:01:46.903Z,932.29
2016-10-24T04:03:00.027Z,932.33
2016-10-24T04:04:13.545Z,932.27
2016-10-24T04:05:27.098Z,932.24
2016-10-24T04:06:40.656Z,932.2
2016-10-24T04:07:53.676Z,932.15
2016-10-24T04:09:06.725Z,932.11
2016-10-24T04:10:20.225Z,932.08
2016-10-24T04:11:33.780Z,932.07
2016-10-24T04:12:47.333Z,932.05
2016-10-24T04:14:00.456Z,932.04
2016-10-24T04:15:13.785Z,932.01
2016-10-24T04:16:27.335Z,931.99
2016-10-24T04:17:40.371Z,931.98
2016-10-24T04:18:53.366Z,931.93
2016-10-24T04:20:05.841Z,931.9
2016-10-24T04:21:19.457Z,931.88
2016-10-24T04:22:32.997Z,931.88
2016-10-24T04:23:46.026Z,931.85
2016-10-24T04:24:59.646Z,931.86
2016-10-24T04:26:13.230Z,931.85
2016-10-24T04:27:26.807Z,931.86
2016-10-24T04:28:39.798Z,931.84
2016-10-24T04:29:53.339Z,931.81
2016-10-24T04:31:06.331Z,931.81
2016-10-24T04:32:19.922Z,931.78
2016-10-24T04:33:33.628Z,931.8
2016-10-24T04:34:46.654Z,931.81
2016-10-24T04:36:00.254Z,931.8
2016-10-24T04:37:13.505Z,931.86
2016-10-24T04:38:27.092Z,931.85
2016-10-24T04:39:40.406Z,931.85
2016-10-24T04:40:53.951Z,931.83
2016-10-24T04:42:06.972Z,931.83
2016-10-24T04:43:20.057Z,931.81
2016-10-24T04:44:33.554Z,931.78
2016-10-24T04:45:46.638Z,931.8
2016-10-24T04:46:59.337Z,931.8
2016-10-24T04:48:12.880Z,931.76
2016-10-24T04:49:26.441Z,931.74
2016-10-24T04:50:40.021Z,931.73
2016-10-24T04:51:53.602Z,931.69
2016-10-24T04:53:07.229Z,931.68
2016-10-24T04:54:20.801Z,931.64
2016-10-24T04:55:33.862Z,931.61
2016-10-24T04:56:46.857Z,931.6
2016-10-24T04:58:00.462Z,931.61
2016-10-24T04:59:14.080Z,931.59
2016-10-24T05:00:27.117Z,931.54
2016-10-24T05:01:40.594Z,931.55
2016-10-24T05:02:54.081Z,931.53
2016-10-24T05:04:07.579Z,931.51
2016-10-24T05:05:20.680Z,931.52
2016-10-24T05:06:34.238Z,931.51
2016-10-24T05:07:47.862Z,931.47
2016-10-24T05:09:01.767Z,931.43
2016-10-24T05:10:14.755Z,931.36
2016-10-24T05:11:28.613Z,931.3
2016-10-24T05:12:41.636Z,931.23
2016-10-24T05:13:55.485Z,931.23
2016-10-24T05:15:08.008Z,931.25
2016-10-24T05:16:21.505Z,931.25
2016-10-24T05:17:34.530Z,931.28
2016-10-24T05:18:47.550Z,931.28
2016-10-24T05:20:01.142Z,931.26
2016-10-24T05:21:14.672Z,931.22
2016-10-24T05:22:27.651Z,931.23
2016-10-24T05:23:41.174Z,931.25
2016-10-24T05:24:54.733Z,931.26
2016-10-24T05:26:08.313Z,931.22
2016-10-24T05:27:21.370Z,931.23
2016-10-24T05:28:34.458Z,931.28
2016-10-24T05:29:47.481Z,931.23
2016-10-24T05:31:01.001Z,931.27
2016-10-24T05:32:14.514Z,931.29
2016-10-24T05:33:27.523Z,931.26
2016-10-24T05:34:40.529Z,931.25
2016-10-24T05:35:54.101Z,931.26
2016-10-24T05:37:07.721Z,931.28
2016-10-24T05:38:21.341Z,931.25
2016-10-24T05:39:34.295Z,931.26
2016-10-24T05:40:47.874Z,931.24
2016-10-24T05:42:01.720Z,931.25
2016-10-24T05:43:15.275Z,931.27
2016-10-24T05:44:28.799Z,931.31
2016-10-24T05:45:42.371Z,931.3
2016-10-24T05:46:55.892Z,931.33
2016-10-24T05:48:08.917Z,931.24
2016-10-24T05:49:22.480Z,931.24
2016-10-24T05:50:36.016Z,931.18
2016-10-24T05:51:49.058Z,931.17
2016-10-24T05:53:02.103Z,931.13
2016-10-24T05:54:15.675Z,931.14
2016-10-24T05:55:28.680Z,931.14
2016-10-24T05:56:42.267Z,931.16
2016-10-24T05:57:55.754Z,931.14
2016-10-24T05:59:08.720Z,931.16
2016-10-24T06:00:21.465Z,931.09
2016-10-24T06:01:34.986Z,931.1
2016-10-24T06:02:48.252Z,931.09
2016-10-24T06:04:01.831Z,931.07
2016-10-24T06:05:15.086Z,931.09
2016-10-24T06:06:27.662Z,931.07
2016-10-24T06:07:41.173Z,931.1
2016-10-24T06:08:54.656Z,931.06
2016-10-24T06:10:08.218Z,931.07
2016-10-24T06:11:21.728Z,931.01
2016-10-24T06:12:35.242Z,930.99
2016-10-24T06:13:48.812Z,930.97
2016-10-24T06:15:02.322Z,930.96
2016-10-24T06:16:15.862Z,930.95
2016-10-24T06:17:29.445Z,930.98
2016-10-24T06:18:42.430Z,930.99
2016-10-24T06:19:55.541Z,931.01
2016-10-24T06:21:08.579Z,931.02
2016-10-24T06:22:22.463Z,931.01
2016-10-24T06:23:35.514Z,931.02
2016-10-24T06:24:49.092Z,931.04
2016-10-24T06:26:02.711Z,931.06
2016-10-24T06:27:15.714Z,931.1
2016-10-24T06:28:29.292Z,931.09
2016-10-24T06:29:41.823Z,931.11
2016-10-24T06:30:55.588Z,931.09
2016-10-24T06:32:09.073Z,931.12
2016-10-24T06:33:21.559Z,931.14
2016-10-24T06:34:34.547Z,931.18
2016-10-24T06:35:47.054Z,931.21
2016-10-24T06:37:00.635Z,931.23
2016-10-24T06:38:13.378Z,931.22
2016-10-24T06:39:26.940Z,931.22
2016-10-24T06:40:39.985Z,931.18
2016-10-24T06:41:53.546Z,931.22
2016-10-24T06:43:06.142Z,931.2
2016-10-24T06:44:19.683Z,931.22
2016-10-24T06:45:32.711Z,931.21
2016-10-24T06:46:45.821Z,931.18
2016-10-24T06:47:59.379Z,931.19
2016-10-24T06:49:12.494Z,931.17
2016-10-24T06:50:26.001Z,931.16
2016-10-24T06:51:39.599Z,931.16
2016-10-24T06:52:52.595Z,931.16
2016-10-24T06:54:06.090Z,931.13
2016-10-24T06:55:19.566Z,931.14
2016-10-24T06:56:33.162Z,931.12
2016-10-24T06:57:45.581Z,931.19
2016-10-24T06:58:59.170Z,931.22
2016-10-24T07:00:11.156Z,931.25
2016-10-24T07:01:24.166Z,931.28
2016-10-24T07:02:37.697Z,931.29
2016-10-24T07:03:51.335Z,931.25
2016-10-24T07:05:04.880Z,931.18
2016-10-24T07:06:17.920Z,931.12
2016-10-24T07:07:31.793Z,931.09
2016-10-24T07:08:45.383Z,931.1
2016-10-24T07:09:58.974Z,931.11
2016-10-24T07:11:12.614Z,931.11
2016-10-24T07:12:25.622Z,931.1
2016-10-24T07:13:38.072Z,931.09
2016-10-24T07:14:51.599Z,931.06
2016-10-24T07:16:05.140Z,931.1
2016-10-24T07:17:18.724Z,931.06
2016-10-24T07:18:32.334Z,931.09
2016-10-24T07:19:45.942Z,931.15
2016-10-24T07:20:59.457Z,931.15
2016-10-24T07:22:12.523Z,931.16
2016-10-24T07:23:25.594Z,931.13
2016-10-24T07:24:39.229Z,931.11
2016-10-24T07:25:52.700Z,931.1
2016-10-24T07:27:05.691Z,931.08
2016-10-24T07:28:18.973Z,931.07
2016-10-24T07:29:32.576Z,931.05
2016-10-24T07:30:45.634Z,931.1
2016-10-24T07:31:59.206Z,931.09
2016-10-24T07:33:12.292Z,931.12
2016-10-24T07:34:25.785Z,931.17
2016-10-24T07:35:39.287Z,931.21
2016-10-24T07:36:52.604Z,931.23
2016-10-24T07:38:06.208Z,931.22
2016-10-24T07:39:19.202Z,931.26
2016-10-24T07:40:32.692Z,931.28
2016-10-24T07:41:46.205Z,931.27
2016-10-24T07:42:58.693Z,931.26
2016-10-24T07:44:12.252Z,931.29
2016-10-24T07:45:25.772Z,931.33
2016-10-24T07:46:38.860Z,931.35
2016-10-24T07:47:52.620Z,931.35
2016-10-24T07:49:05.594Z,931.33
2016-10-24T07:50:18.594Z,931.32
2016-10-24T07:51:32.129Z,931.32
2016-10-24T07:52:45.111Z,931.37
2016-10-24T07:53:58.315Z,931.34
2016-10-24T07:55:11.293Z,931.33
2016-10-24T07:56:24.368Z,931.38
2016-10-24T07:57:37.380Z,931.35
2016-10-24T07:58:50.882Z,931.36
2016-10-24T08:00:04.478Z,931.31
2016-10-24T08:01:17.472Z,931.38
2016-10-24T08:02:31.082Z,931.36
2016-10-24T08:03:44.602Z,931.36
2016-10-24T08:04:58.149Z,931.36
2016-10-24T08:06:11.187Z,931.36
2016-10-24T08:07:24.746Z,931.41
2016-10-24T08:08:37.224Z,931.4
2016-10-24T08:09:50.757Z,931.35
2016-10-24T08:11:04.385Z,931.35
2016-10-24T08:12:17.982Z,931.33
2016-10-24T08:13:31.856Z,931.29
2016-10-24T08:14:45.123Z,931.3
2016-10-24T08:15:58.859Z,931.28
2016-10-24T08:17:12.414Z,931.31
2016-10-24T08:18:25.415Z,931.27
2016-10-24T08:19:38.432Z,931.25
2016-10-24T08:20:51.698Z,931.27
2016-10-24T08:22:04.739Z,931.25
2016-10-24T08:23:17.862Z,931.24
2016-10-24T08:24:31.435Z,931.22
2016-10-24T08:25:44.710Z,931.2
2016-10-24T08:26:57.435Z,931.21
2016-10-24T08:28:10.982Z,931.18
2016-10-24T08:29:24.622Z,931.15
2016-10-24T08:30:37.653Z,931.13
2016-10-24T08:31:51.322Z,931.14
2016-10-24T08:33:04.842Z,931.14
2016-10-24T08:34:17.368Z,931.06
2016-10-24T08:35:29.857Z,931.03
2016-10-24T08:36:42.894Z,930.99
2016-10-24T08:37:56.547Z,931.01
2016-10-24T08:39:10.014Z,931.04
2016-10-24T08:40:23.029Z,931.08
2016-10-24T08:41:36.673Z,931.13
2016-10-24T08:42:49.733Z,931.16
2016-10-24T08:44:03.263Z,931.16
2016-10-24T08:45:16.294Z,931.21
2016-10-24T08:46:29.292Z,931.22
2016-10-24T08:47:42.843Z,931.21
2016-10-24T08:48:56.446Z,931.26
2016-10-24T08:50:10.030Z,931.27
2016-10-24T08:51:23.600Z,931.32
2016-10-24T08:52:36.705Z,931.32
2016-10-24T08:53:50.272Z,931.32
2016-10-24T08:55:03.275Z,931.36
2016-10-24T08:56:16.853Z,931.32
2016-10-24T08:57:29.886Z,931.32
2016-10-24T08:58:42.884Z,931.33
2016-10-24T08:59:56.470Z,931.3
2016-10-24T09:01:10.015Z,931.34
2016-10-24T09:02:23.015Z,931.34
2016-10-24T09:03:36.036Z,931.29
2016-10-24T09:04:49.044Z,931.29
2016-10-24T09:06:02.625Z,931.31
2016-10-24T09:07:15.601Z,931.32
2016-10-24T09:08:29.232Z,931.34
2016-10-24T09:09:42.487Z,931.37
2016-10-24T09:10:56.056Z,931.41
2016-10-24T09:12:09.036Z,931.45
2016-10-24T09:13:22.058Z,931.5
2016-10-24T09:14:35.087Z,931.53
2016-10-24T09:15:48.314Z,931.53
2016-10-24T09:17:01.943Z,931.55
2016-10-24T09:18:15.425Z,931.55
2016-10-24T09:19:29.035Z,931.59
2016-10-24T09:20:41.995Z,931.59
2016-10-24T09:21:55.711Z,931.6
2016-10-24T09:23:08.706Z,931.57
2016-10-24T09:24:21.456Z,931.62
2016-10-24T09:25:35.025Z,931.62
2016-10-24T09:26:48.557Z,931.57
2016-10-24T09:28:01.432Z,931.58
2016-10-24T09:29:14.939Z,931.6
2016-10-24T09:30:28.327Z,931.56
2016-10-24T09:31:41.865Z,931.57
2016-10-24T09:32:55.710Z,931.59
2016-10-24T09:34:08.765Z,931.6
2016-10-24T09:35:22.635Z,931.62
2016-10-24T09:36:36.167Z,931.66
2016-10-24T09:37:48.575Z,931.66
2016-10-24T09:39:01.640Z,931.69
2016-10-24T09:40:15.115Z,931.68
2016-10-24T09:41:28.328Z,931.7
2016-10-24T09:42:41.792Z,931.7
2016-10-24T09:43:54.806Z,931.7
2016-10-24T09:45:08.354Z,931.71
2016-10-24T09:46:21.471Z,931.71
2016-10-24T09:47:35.058Z,931.72
2016-10-24T09:48:48.543Z,931.76
2016-10-24T09:50:02.132Z,931.76
2016-10-24T09:51:15.159Z,931.75
2016-10-24T09:52:27.770Z,931.79
2016-10-24T09:53:40.842Z,931.8
2016-10-24T09:54:54.423Z,931.8
2016-10-24T09:56:07.986Z,931.84
2016-10-24T09:57:21.513Z,931.83
2016-10-24T09:58:35.044Z,931.84
2016-10-24T09:59:48.529Z,931.83
2016-10-24T10:01:02.069Z,931.79
2016-10-24T10:02:15.630Z,931.79
2016-10-24T10:03:29.218Z,931.79
2016-10-24T10:04:42.241Z,931.76
2016-10-24T10:05:55.846Z,931.76
2016-10-24T10:07:09.409Z,931.74
2016-10-24T10:08:22.950Z,931.74
2016-10-24T10:09:36.519Z,931.75
2016-10-24T10:10:49.831Z,931.72
2016-10-24T10:12:02.802Z,931.74
2016-10-24T10:13:15.863Z,931.69
2016-10-24T10:14:29.430Z,931.75
2016-10-24T10:15:43.023Z,931.74
2016-10-24T10:16:56.552Z,931.75
2016-10-24T10:18:10.095Z,931.79
2016-10-24T10:19:23.672Z,931.83
2016-10-24T10:20:36.714Z,931.84
2016-10-24T10:21:49.150Z,931.87
2016-10-24T10:23:02.679Z,931.92
2016-10-24T10:24:15.721Z,931.95
2016-10-24T10:25:29.275Z,931.98
2016-10-24T10:26:42.879Z,932
2016-10-24T10:27:56.453Z,932.03
2016-10-24T10:29:10.080Z,931.97
2016-10-24T10:30:23.092Z,931.94
2016-10-24T10:31:36.725Z,932.01
2016-10-24T10:32:50.410Z,931.98
2016-10-24T10:34:03.996Z,931.97
2016-10-24T10:35:17.587Z,931.95
2016-10-24T10:36:31.180Z,931.94
2016-10-24T10:37:44.757Z,931.96
2016-10-24T10:38:58.327Z,931.96
2016-10-24T10:40:11.919Z,931.94
2016-10-24T10:41:25.825Z,931.93
2016-10-24T10:42:39.424Z,931.91
2016-10-24T10:43:52.952Z,931.91
2016-10-24T10:45:06.458Z,931.89
2016-10-24T10:46:20.036Z,931.88
2016-10-24T10:47:33.114Z,931.9
2016-10-24T10:48:46.144Z,931.86
2016-10-24T10:49:59.667Z,931.82
2016-10-24T10:51:13.208Z,931.81
2016-10-24T10:52:26.189Z,931.83
2016-10-24T10:53:39.683Z,931.83
2016-10-24T10:54:52.663Z,931.84
2016-10-24T10:56:06.249Z,931.81
2016-10-24T10:57:18.769Z,931.87
2016-10-24T10:58:31.823Z,931.92
2016-10-24T10:59:45.374Z,931.92
2016-10-24T11:00:58.411Z,931.94
2016-10-24T11:02:11.989Z,931.95
2016-10-24T11:03:25.800Z,931.98
2016-10-24T11:04:39.381Z,931.97
2016-10-24T11:05:52.990Z,931.94
2016-10-24T11:07:06.601Z,932.02
2016-10-24T11:08:19.588Z,932.06
2016-10-24T11:09:33.205Z,932.04
2016-10-24T11:10:46.291Z,932.14
2016-10-24T11:11:59.823Z,932.12
2016-10-24T11:13:12.889Z,932.21
2016-10-24T11:14:25.888Z,932.16
2016-10-24T11:15:39.380Z,932.19
2016-10-24T11:16:52.725Z,932.25
2016-10-24T11:18:06.284Z,932.26
2016-10-24T11:19:19.340Z,932.29
2016-10-24T11:20:32.853Z,932.31
2016-10-24T11:21:46.177Z,932.39
2016-10-24T11:22:59.229Z,932.4
2016-10-24T11:24:11.646Z,932.39
2016-10-24T11:25:24.432Z,932.33
2016-10-24T11:26:38.029Z,932.35
2016-10-24T11:27:51.579Z,932.32
2016-10-24T11:29:04.932Z,932.28
2016-10-24T11:30:17.912Z,932.31
2016-10-24T11:31:31.477Z,932.27
2016-10-24T11:32:45.026Z,932.32
2016-10-24T11:33:58.439Z,932.27
2016-10-24T11:35:12.046Z,932.28
2016-10-24T11:36:25.058Z,932.3
2016-10-24T11:37:38.599Z,932.31
2016-10-24T11:38:51.104Z,932.31
2016-10-24T11:40:04.151Z,932.31
2016-10-24T11:41:17.692Z,932.33
2016-10-24T11:42:30.646Z,932.32
2016-10-24T11:43:43.705Z,932.33
2016-10-24T11:44:56.703Z,932.33
2016-10-24T11:46:10.475Z,932.31
2016-10-24T11:47:24.081Z,932.34
2016-10-24T11:48:37.610Z,932.34
2016-10-24T11:49:51.458Z,932.32
2016-10-24T11:51:04.967Z,932.37
2016-10-24T11:52:17.943Z,932.4
2016-10-24T11:53:31.572Z,932.36
2016-10-24T11:54:45.180Z,932.37
2016-10-24T11:55:57.864Z,932.36
2016-10-24T11:57:11.415Z,932.38
2016-10-24T11:58:24.457Z,932.39
2016-10-24T11:59:37.525Z,932.39
2016-10-24T12:00:51.050Z,932.39
2016-10-24T12:02:04.571Z,932.38
2016-10-24T12:03:17.622Z,932.39
2016-10-24T12:04:31.133Z,932.37
2016-10-24T12:05:44.123Z,932.36
2016-10-24T12:06:57.701Z,932.38
2016-10-24T12:08:10.771Z,932.42
2016-10-24T12:09:24.302Z,932.44
2016-10-24T12:10:37.888Z,932.42
2016-10-24T12:11:51.487Z,932.45
2016-10-24T12:13:04.973Z,932.43
2016-10-24T12:14:18.516Z,932.45
2016-10-24T12:15:32.039Z,932.48
2016-10-24T12:16:45.541Z,932.44
2016-10-24T12:17:59.141Z,932.46
2016-10-24T12:19:12.668Z,932.47
2016-10-24T12:20:26.312Z,932.48
2016-10-24T12:21:39.279Z,932.48
2016-10-24T12:22:52.742Z,932.49
2016-10-24T12:24:05.762Z,932.52
2016-10-24T12:25:18.449Z,932.53
2016-10-24T12:26:32.050Z,932.53
2016-10-24T12:27:45.677Z,932.48
2016-10-24T12:28:58.679Z,932.44
2016-10-24T12:30:12.265Z,932.43
2016-10-24T12:31:25.512Z,932.43
2016-10-24T12:32:39.065Z,932.46
2016-10-24T12:33:52.699Z,932.42
2016-10-24T12:35:05.570Z,932.41
2016-10-24T12:36:18.584Z,932.4
2016-10-24T12:37:32.141Z,932.36
2016-10-24T12:38:45.407Z,932.36
2016-10-24T12:39:58.451Z,932.35
2016-10-24T12:41:11.761Z,932.36
2016-10-24T12:42:25.287Z,932.36
2016-10-24T12:43:38.264Z,932.36
2016-10-24T12:44:51.812Z,932.39
2016-10-24T12:46:05.335Z,932.36
2016-10-24T12:47:18.601Z,932.33
2016-10-24T12:48:32.161Z,932.32
2016-10-24T12:49:44.721Z,932.35
2016-10-24T12:50:57.706Z,932.38
2016-10-24T12:52:10.814Z,932.34
2016-10-24T12:53:24.356Z,932.27
2016-10-24T12:54:37.886Z,932.3
2016-10-24T12:55:50.919Z,932.29
2016-10-24T12:57:03.953Z,932.27
2016-10-24T12:58:17.457Z,932.28
2016-10-24T12:59:31.057Z,932.32
2016-10-24T13:00:44.114Z,932.29
2016-10-24T13:01:57.680Z,932.31
2016-10-24T13:03:11.295Z,932.32
2016-10-24T13:04:24.826Z,932.3
2016-10-24T13:05:38.451Z,932.32
2016-10-24T13:06:52.067Z,932.3
2016-10-24T13:08:05.579Z,932.31
2016-10-24T13:09:18.638Z,932.27
2016-10-24T13:10:31.965Z,932.31
2016-10-24T13:11:45.648Z,932.32
2016-10-24T13:12:59.176Z,932.28
2016-10-24T13:14:12.791Z,932.29
2016-10-24T13:15:26.127Z,932.25
2016-10-24T13:16:39.751Z,932.2
2016-10-24T13:17:53.264Z,932.22
2016-10-24T13:19:06.298Z,932.22
2016-10-24T13:20:19.887Z,932.19
2016-10-24T13:21:33.435Z,932.21
2016-10-24T13:22:45.962Z,932.19
2016-10-24T13:23:59.230Z,932.19
2016-10-24T13:25:12.759Z,932.17
2016-10-24T13:26:26.312Z,932.17
2016-10-24T13:27:38.835Z,932.17
2016-10-24T13:28:52.751Z,932.16
2016-10-24T13:30:05.249Z,932.13
2016-10-24T13:31:18.467Z,932.08
2016-10-24T13:32:32.099Z,932.07
2016-10-24T13:33:45.143Z,932.07
2016-10-24T13:34:58.449Z,932.03
2016-10-24T13:36:12.022Z,932.02
2016-10-24T13:37:25.889Z,932.03
2016-10-24T13:38:39.393Z,932.02
2016-10-24T13:39:52.948Z,932.04
2016-10-24T13:41:06.069Z,932.06
2016-10-24T13:42:19.653Z,931.99
2016-10-24T13:43:33.206Z,931.93
2016-10-24T13:44:46.253Z,931.93
2016-10-24T13:45:59.890Z,931.9
2016-10-24T13:47:13.485Z,931.9
2016-10-24T13:48:27.037Z,931.84
2016-10-24T13:49:40.637Z,931.89
2016-10-24T13:50:53.633Z,931.85
2016-10-24T13:52:07.168Z,931.89
2016-10-24T13:53:20.728Z,931.92
2016-10-24T13:54:34.306Z,931.88
2016-10-24T13:55:47.846Z,931.86
2016-10-24T13:57:01.111Z,931.91
2016-10-24T13:58:14.766Z,931.92
2016-10-24T13:59:27.858Z,931.84
2016-10-24T14:00:41.382Z,931.8
2016-10-24T14:01:54.381Z,931.78
2016-10-24T14:03:07.451Z,931.73
2016-10-24T14:04:20.472Z,931.72
2016-10-24T14:05:34.011Z,931.72
2016-10-24T14:06:47.030Z,931.65
2016-10-24T14:08:00.701Z,931.7
2016-10-24T14:09:13.768Z,931.61
2016-10-24T14:10:26.815Z,931.69
2016-10-24T14:11:39.903Z,931.64
2016-10-24T14:12:53.491Z,931.62
2016-10-24T14:14:06.580Z,931.59
2016-10-24T14:15:20.203Z,931.59
2016-10-24T14:16:33.819Z,931.6
2016-10-24T14:17:47.390Z,931.56
2016-10-24T14:19:00.532Z,931.56
2016-10-24T14:20:14.089Z,931.56
2016-10-24T14:21:27.663Z,931.55
2016-10-24T14:22:40.895Z,931.53
2016-10-24T14:23:54.465Z,931.52
2016-10-24T14:25:07.449Z,931.51
2016-10-24T14:26:21.005Z,931.52
2016-10-24T14:27:34.025Z,931.48
2016-10-24T14:28:47.143Z,931.46
2016-10-24T14:30:00.783Z,931.5
2016-10-24T14:31:13.833Z,931.48
2016-10-24T14:32:27.416Z,931.5
2016-10-24T14:33:40.411Z,931.46
2016-10-24T14:34:53.960Z,931.47
2016-10-24T14:36:06.457Z,931.44
2016-10-24T14:37:19.507Z,931.43
2016-10-24T14:38:31.553Z,931.38
2016-10-24T14:39:44.864Z,931.38
2016-10-24T14:40:58.398Z,931.36
2016-10-24T14:42:11.998Z,931.36
2016-10-24T14:43:25.024Z,931.33
2016-10-24T14:44:38.504Z,931.27
2016-10-24T14:45:51.587Z,931.3
2016-10-24T14:47:04.646Z,931.28
2016-10-24T14:48:17.672Z,931.23
2016-10-24T14:49:30.152Z,931.17
2016-10-24T14:50:43.807Z,931.19
2016-10-24T14:51:57.411Z,931.18
2016-10-24T14:53:10.510Z,931.19
2016-10-24T14:54:22.973Z,931.16
2016-10-24T14:55:36.358Z,931.16
2016-10-24T14:56:49.900Z,931.16
2016-10-24T14:58:03.006Z,931.14
2016-10-24T14:59:16.064Z,931.14
2016-10-24T15:00:29.637Z,931.13
2016-10-24T15:01:42.699Z,931.12
2016-10-24T15:02:56.341Z,931.11
2016-10-24T15:04:09.885Z,931.05
2016-10-24T15:05:22.755Z,931.08
2016-10-24T15:06:36.301Z,931.05
2016-10-24T15:07:49.867Z,931.06
2016-10-24T15:09:03.506Z,930.96
2016-10-24T15:10:17.095Z,931.04
2016-10-24T15:11:30.415Z,930.99
2016-10-24T15:12:43.960Z,931.01
2016-10-24T15:13:57.526Z,930.94
2016-10-24T15:15:11.112Z,930.94
2016-10-24T15:16:23.592Z,930.89
2016-10-24T15:17:37.172Z,930.88